ESOW/VST METAR and TAF weather

Enter ICAO airport designator
Station Type Date Time Source
ESOW METAR 2021/09/24 03:20 UTC NOAA

ESOW 240320Z AUTO 33017KT 9999 OVC026/// 10/05 Q0993


Station Type Date Time Source
ESOW Decoded METAR 2021/09/24 03:20 UTC NOAA

Vasteras / Hasslo, Sweden (ESOW) 59-35N 016-38E 31M
Sep 23, 2021 - 11:20 PM EDT / 2021.09.24 0320 UTC
Wind: from the NNW (330 degrees) at 20 MPH (17 KT):0
Visibility: greater than 7 mile(s):0
Sky conditions: overcast
Temperature: 50 F (10 C)
Dew Point: 41 F (5 C)
Relative Humidity: 71%
Pressure (altimeter): 29.32 in. Hg (0993 hPa)
ob: ESOW 240320Z AUTO 33017KT 9999 OVC026/// 10/05 Q0993
cycle: 3

Station Type Date Time Source
ESOW TAF 2021/05/19 03:36 UTC NOAA

TAF TAF ESOW 190230Z 1903/1915 27005KT CAVOK

Example: see airport list